Disclaimer

Please do not use the information listed here in-flight or in-navigation, as they are not provided to us by the airports but are provided by volunteers, so they might be outdated.

Search


Regions


Airport information page

Radio informations:
Melbourne Center - 125.7 MHz
Common traffic adv. frequency (CTAF) - 126.7 MHz

Airport informations:
Latitude: 23° 10' 16.00" S
Longitude: 117° 44' 43.00" E
Elevation: 1406 feet - 429 meters
Operating hours: N/A
Operating agency: Civil government, landing fees and diplomatic clearance may be required
Timezone: UTC+8
Fuel: Jet A1, without icing nhibitor.

100/130 MIL Spec, low lead, aviation gasoline (BLUE)

Runway information:
06/24 - 6995 x 148 feet< - >2132 x 45 meters

Recent METARs:
YPBO 142000Z AUTO 27005KT 9999 // NCD 26/07 Q1013
YPBO 142000Z AUTO 27005KT 9999 // NCD 26/07 Q1013
YPBO 142100Z AUTO 32001KT 9999 // NCD 23/07 Q1014

Airport on the map: